Terminal Aerodrome Forecast
Issued by NWS Wilmington, OH

Current Version | Previous Version | Text Only | Print | Product List | Glossary Off
Versions: 1 2 3 4 5 6 7 8 9 10 11 12 13 14 15 16 17 18 19 20 21 22 23

000
FTUS41 KILN 192300
TAFILN
TAF
KILN 192334Z 2000/2024 20007KT P6SM VCTS BKN040CB
      TEMPO 2001/2005 4SM -TSRA BR OVC035CB
     FM200600 21003KT 4SM BR SCT040
     FM201000 21003KT 2SM BR FEW015
     FM201400 25007KT P6SM SCT035
     FM201800 27010KT P6SM SCT040=

USA.gov is the U.S. government's official web portal to all federal, state and local government web resources and services.